Rauchtown, Pennsylvania
Current Conditions -  °F | °C
As of 5:54 PM on Tuesday 25 Nov 2014 (Local Time) from KIPT Reporting Station
Clear Clear  
Wind Chill: 39°   Ceiling: Unl
Heat Index: 42°   Visibility: 10mi
Dew Point: 28°   Wind: 5mph
Humidity: 58%   Direction: 260°W
Pressure: 30.04"   Gusts: NA
Location:  41.1288°N, 77.1989°W
Report Text: KIPT 252254Z 26004KT 10SM CLR 06/M02 A3004 RMK AO2 SLP174 T00561022
Loading
Personal Weather Stations






























Interactive Weather Map New forecast layout! Learn more

10-Day Weather Forecast

Advertisements
Track Severe Weather on mobile